createdAt,value
2022-12-25T00:00:26.937Z,7.53
2022-12-25T00:15:23.258Z,7.60
2022-12-25T00:30:23.291Z,7.38
2022-12-25T00:45:23.535Z,7.43
2022-12-25T01:00:26.643Z,7.30
2022-12-25T01:15:23.580Z,7.32
2022-12-25T01:30:23.900Z,7.38
2022-12-25T01:45:23.570Z,7.43
2022-12-25T02:00:25.407Z,7.75
2022-12-25T02:15:23.674Z,7.35
2022-12-25T02:30:23.688Z,7.32
2022-12-25T02:45:23.508Z,7.23
2022-12-25T03:00:23.810Z,7.12
2022-12-25T03:15:23.710Z,7.03
2022-12-25T03:30:23.894Z,6.95
2022-12-25T03:45:23.807Z,6.95
2022-12-25T04:00:23.650Z,6.88
2022-12-25T04:15:23.993Z,7.13
2022-12-25T04:30:23.937Z,6.75
2022-12-25T04:45:23.790Z,6.73
2022-12-25T05:00:24.892Z,6.87
2022-12-25T05:15:23.736Z,6.75
2022-12-25T05:30:23.697Z,6.90
2022-12-25T05:45:23.844Z,6.80
2022-12-25T06:00:36.764Z,6.75
2022-12-25T06:15:23.776Z,6.80
2022-12-25T06:30:23.730Z,6.75
2022-12-25T06:45:23.930Z,6.73
2022-12-25T07:00:24.018Z,6.65
2022-12-25T07:15:24.657Z,6.77
2022-12-25T07:30:24.064Z,6.68
2022-12-25T07:45:23.901Z,6.60
2022-12-25T08:00:25.566Z,6.47
2022-12-25T08:15:22.900Z,6.43
2022-12-25T08:30:22.925Z,6.40
2022-12-25T08:45:22.926Z,6.62
2022-12-25T09:00:23.756Z,6.87
2022-12-25T09:15:23.110Z,6.50
2022-12-25T09:30:23.024Z,6.95
2022-12-25T09:45:23.247Z,6.95
2022-12-25T10:00:24.828Z,7.10
2022-12-25T10:15:23.284Z,7.35
2022-12-25T10:30:23.341Z,7.70
2022-12-25T10:45:23.625Z,7.88
2022-12-25T11:00:31.301Z,8.15
2022-12-25T11:15:23.564Z,8.70
2022-12-25T11:30:23.312Z,9.05
2022-12-25T11:45:23.296Z,9.33
2022-12-25T12:00:46.338Z,9.68
2022-12-25T12:15:23.459Z,9.95
2022-12-25T12:30:23.514Z,10.05
2022-12-25T12:45:23.446Z,10.60
2022-12-25T13:00:23.401Z,11.02
2022-12-25T13:15:23.486Z,11.07
2022-12-25T13:30:23.549Z,11.15
2022-12-25T13:45:23.432Z,11.07
2022-12-25T14:00:23.703Z,11.12
2022-12-25T14:15:23.955Z,11.02
2022-12-25T14:30:23.805Z,11.00
2022-12-25T14:45:23.794Z,10.48
2022-12-25T15:00:29.214Z,10.30
2022-12-25T15:15:23.601Z,10.05
2022-12-25T15:30:23.802Z,9.70
2022-12-25T15:45:23.715Z,9.57
2022-12-25T16:00:24.941Z,9.27
2022-12-25T16:15:23.792Z,9.13
2022-12-25T16:30:24.153Z,8.82
2022-12-25T16:45:23.825Z,8.77
2022-12-25T17:00:24.011Z,8.70
2022-12-25T17:15:24.483Z,8.43
2022-12-25T17:30:33.570Z,8.40
2022-12-25T17:45:33.630Z,8.43
2022-12-25T18:00:44.540Z,8.35
2022-12-25T18:15:23.129Z,8.23
2022-12-25T18:30:24.504Z,8.30
2022-12-25T18:45:23.076Z,8.30
2022-12-25T19:00:26.803Z,8.27
2022-12-25T19:15:23.293Z,8.17
2022-12-25T19:30:23.339Z,7.97
2022-12-25T19:45:23.381Z,7.93
2022-12-25T20:00:24.009Z,8.00
2022-12-25T20:15:23.559Z,7.90
2022-12-25T20:30:23.698Z,7.65
2022-12-25T20:45:23.390Z,7.47
2022-12-25T21:00:24.069Z,7.47
2022-12-25T21:15:23.407Z,7.23
2022-12-25T21:30:24.018Z,7.07
2022-12-25T21:45:23.465Z,6.90
2022-12-25T22:00:34.533Z,6.73
2022-12-25T22:15:23.694Z,6.73
2022-12-25T22:30:23.419Z,6.60
2022-12-25T22:45:23.575Z,6.43
2022-12-25T23:03:07.639Z,5.60
2022-12-25T23:15:24.455Z,6.05
2022-12-25T23:30:23.703Z,6.03
2022-12-25T23:45:23.490Z,5.93
